sensor_id;sensor_type;location;lat;lon;timestamp;temperature;humidity
7502;DHT22;3792;47.740;7.606;2023-12-20T00:02:06;6.60;99.90
7502;DHT22;3792;47.740;7.606;2023-12-20T00:04:33;6.60;99.90
7502;DHT22;3792;47.740;7.606;2023-12-20T00:07:00;6.70;99.90
7502;DHT22;3792;47.740;7.606;2023-12-20T00:09:27;6.60;99.90
7502;DHT22;3792;47.740;7.606;2023-12-20T00:11:54;6.60;99.90
7502;DHT22;3792;47.740;7.606;2023-12-20T00:14:22;6.60;99.90
7502;DHT22;3792;47.740;7.606;2023-12-20T00:16:49;6.70;99.90
7502;DHT22;3792;47.740;7.606;2023-12-20T00:19:16;6.70;99.90
7502;DHT22;3792;47.740;7.606;2023-12-20T00:21:43;6.70;99.90
7502;DHT22;3792;47.740;7.606;2023-12-20T00:24:10;6.70;99.90
7502;DHT22;3792;47.740;7.606;2023-12-20T00:26:37;6.70;99.90
7502;DHT22;3792;47.740;7.606;2023-12-20T00:29:04;6.70;99.90
7502;DHT22;3792;47.740;7.606;2023-12-20T00:31:33;6.70;99.90
7502;DHT22;3792;47.740;7.606;2023-12-20T00:34:00;6.70;99.90
7502;DHT22;3792;47.740;7.606;2023-12-20T00:36:27;6.60;99.90
7502;DHT22;3792;47.740;7.606;2023-12-20T00:38:54;6.60;99.90
7502;DHT22;3792;47.740;7.606;2023-12-20T00:41:21;6.60;99.90
7502;DHT22;3792;47.740;7.606;2023-12-20T00:43:48;6.60;99.90
7502;DHT22;3792;47.740;7.606;2023-12-20T00:46:15;6.50;99.90
7502;DHT22;3792;47.740;7.606;2023-12-20T00:48:44;6.50;99.90
7502;DHT22;3792;47.740;7.606;2023-12-20T00:51:11;6.50;99.90
7502;DHT22;3792;47.740;7.606;2023-12-20T00:53:38;6.40;99.90
7502;DHT22;3792;47.740;7.606;2023-12-20T00:56:05;6.30;99.90
7502;DHT22;3792;47.740;7.606;2023-12-20T00:58:33;6.20;99.90
7502;DHT22;3792;47.740;7.606;2023-12-20T01:01:00;6.20;99.90
7502;DHT22;3792;47.740;7.606;2023-12-20T01:03:27;6.30;99.90
7502;DHT22;3792;47.740;7.606;2023-12-20T01:05:55;6.20;99.90
7502;DHT22;3792;47.740;7.606;2023-12-20T01:08:23;6.30;99.90
7502;DHT22;3792;47.740;7.606;2023-12-20T01:10:50;6.30;99.90
7502;DHT22;3792;47.740;7.606;2023-12-20T01:13:17;6.30;99.90
7502;DHT22;3792;47.740;7.606;2023-12-20T01:15:44;6.30;99.90
7502;DHT22;3792;47.740;7.606;2023-12-20T01:18:11;6.30;99.90
7502;DHT22;3792;47.740;7.606;2023-12-20T01:20:38;6.40;99.90
7502;DHT22;3792;47.740;7.606;2023-12-20T01:23:06;6.40;99.90
7502;DHT22;3792;47.740;7.606;2023-12-20T01:25:33;6.40;99.90
7502;DHT22;3792;47.740;7.606;2023-12-20T01:28:00;6.40;99.90
7502;DHT22;3792;47.740;7.606;2023-12-20T01:30:28;6.40;99.90
7502;DHT22;3792;47.740;7.606;2023-12-20T01:32:55;6.40;99.90
7502;DHT22;3792;47.740;7.606;2023-12-20T01:35:22;6.40;99.90
7502;DHT22;3792;47.740;7.606;2023-12-20T01:37:49;6.30;99.90
7502;DHT22;3792;47.740;7.606;2023-12-20T01:40:19;6.20;99.90
7502;DHT22;3792;47.740;7.606;2023-12-20T01:42:46;6.20;99.90
7502;DHT22;3792;47.740;7.606;2023-12-20T01:45:13;6.30;99.90
7502;DHT22;3792;47.740;7.606;2023-12-20T01:47:40;6.30;99.90
7502;DHT22;3792;47.740;7.606;2023-12-20T01:50:07;6.30;99.90
7502;DHT22;3792;47.740;7.606;2023-12-20T01:52:35;6.30;99.90
7502;DHT22;3792;47.740;7.606;2023-12-20T01:55:03;6.30;99.90
7502;DHT22;3792;47.740;7.606;2023-12-20T01:57:38;6.30;99.90
7502;DHT22;3792;47.740;7.606;2023-12-20T02:00:07;6.30;99.90
7502;DHT22;3792;47.740;7.606;2023-12-20T02:02:36;6.20;99.90
7502;DHT22;3792;47.740;7.606;2023-12-20T02:05:05;6.20;99.90
7502;DHT22;3792;47.740;7.606;2023-12-20T02:07:33;6.10;99.90
7502;DHT22;3792;47.740;7.606;2023-12-20T02:10:00;6.10;99.90
7502;DHT22;3792;47.740;7.606;2023-12-20T02:12:27;6.20;99.90
7502;DHT22;3792;47.740;7.606;2023-12-20T02:14:56;6.20;99.90
7502;DHT22;3792;47.740;7.606;2023-12-20T02:17:23;6.20;99.90
7502;DHT22;3792;47.740;7.606;2023-12-20T02:19:50;6.20;99.90
7502;DHT22;3792;47.740;7.606;2023-12-20T02:22:19;6.20;99.90
7502;DHT22;3792;47.740;7.606;2023-12-20T02:24:46;6.20;99.90
7502;DHT22;3792;47.740;7.606;2023-12-20T02:27:13;6.20;99.90
7502;DHT22;3792;47.740;7.606;2023-12-20T02:29:41;6.30;99.90
7502;DHT22;3792;47.740;7.606;2023-12-20T02:32:08;6.30;99.90
7502;DHT22;3792;47.740;7.606;2023-12-20T02:34:36;6.30;99.90
7502;DHT22;3792;47.740;7.606;2023-12-20T02:37:04;6.40;99.90
7502;DHT22;3792;47.740;7.606;2023-12-20T02:39:32;6.40;99.90
7502;DHT22;3792;47.740;7.606;2023-12-20T02:41:59;6.40;99.90
7502;DHT22;3792;47.740;7.606;2023-12-20T02:44:26;6.40;99.90
7502;DHT22;3792;47.740;7.606;2023-12-20T02:46:53;6.40;99.90
7502;DHT22;3792;47.740;7.606;2023-12-20T02:49:20;6.40;99.90
7502;DHT22;3792;47.740;7.606;2023-12-20T02:51:47;6.30;99.90
7502;DHT22;3792;47.740;7.606;2023-12-20T02:54:14;6.40;99.90
7502;DHT22;3792;47.740;7.606;2023-12-20T02:56:43;6.40;99.90
7502;DHT22;3792;47.740;7.606;2023-12-20T02:59:10;6.40;99.90
7502;DHT22;3792;47.740;7.606;2023-12-20T03:01:41;6.40;99.90
7502;DHT22;3792;47.740;7.606;2023-12-20T03:04:09;6.40;99.90
7502;DHT22;3792;47.740;7.606;2023-12-20T03:06:36;6.40;99.90
7502;DHT22;3792;47.740;7.606;2023-12-20T03:09:03;6.50;99.90
7502;DHT22;3792;47.740;7.606;2023-12-20T03:11:30;6.50;99.90
7502;DHT22;3792;47.740;7.606;2023-12-20T03:13:59;6.50;99.90
7502;DHT22;3792;47.740;7.606;2023-12-20T03:16:26;6.50;99.90
7502;DHT22;3792;47.740;7.606;2023-12-20T03:18:53;6.50;99.90
7502;DHT22;3792;47.740;7.606;2023-12-20T03:21:20;6.50;99.90
7502;DHT22;3792;47.740;7.606;2023-12-20T03:23:47;6.50;99.90
7502;DHT22;3792;47.740;7.606;2023-12-20T03:26:14;6.60;99.90
7502;DHT22;3792;47.740;7.606;2023-12-20T03:28:41;6.60;99.90
7502;DHT22;3792;47.740;7.606;2023-12-20T03:31:09;6.60;99.90
7502;DHT22;3792;47.740;7.606;2023-12-20T03:33:37;6.50;99.90
7502;DHT22;3792;47.740;7.606;2023-12-20T03:36:04;6.60;99.90
7502;DHT22;3792;47.740;7.606;2023-12-20T03:38:31;6.50;99.90
7502;DHT22;3792;47.740;7.606;2023-12-20T03:40:58;6.50;99.90
7502;DHT22;3792;47.740;7.606;2023-12-20T03:43:25;6.60;99.90
7502;DHT22;3792;47.740;7.606;2023-12-20T03:45:52;6.60;99.90
7502;DHT22;3792;47.740;7.606;2023-12-20T03:48:21;6.60;99.90
7502;DHT22;3792;47.740;7.606;2023-12-20T03:50:48;6.70;99.90
7502;DHT22;3792;47.740;7.606;2023-12-20T03:53:15;6.60;99.90
7502;DHT22;3792;47.740;7.606;2023-12-20T03:55:42;6.60;99.90
7502;DHT22;3792;47.740;7.606;2023-12-20T03:58:09;6.60;99.90
7502;DHT22;3792;47.740;7.606;2023-12-20T04:00:36;6.60;99.90
7502;DHT22;3792;47.740;7.606;2023-12-20T04:03:04;6.70;99.90
7502;DHT22;3792;47.740;7.606;2023-12-20T04:05:32;6.70;99.90
7502;DHT22;3792;47.740;7.606;2023-12-20T04:08:01;6.70;99.90
7502;DHT22;3792;47.740;7.606;2023-12-20T04:10:28;6.70;99.90
7502;DHT22;3792;47.740;7.606;2023-12-20T04:12:55;6.60;99.90
7502;DHT22;3792;47.740;7.606;2023-12-20T04:15:22;6.70;99.90
7502;DHT22;3792;47.740;7.606;2023-12-20T04:17:49;6.60;99.90
7502;DHT22;3792;47.740;7.606;2023-12-20T04:20:17;6.60;99.90
7502;DHT22;3792;47.740;7.606;2023-12-20T04:22:45;6.60;99.90
7502;DHT22;3792;47.740;7.606;2023-12-20T04:25:12;6.60;99.90
7502;DHT22;3792;47.740;7.606;2023-12-20T04:27:39;6.70;99.90
7502;DHT22;3792;47.740;7.606;2023-12-20T04:30:07;6.70;99.90
7502;DHT22;3792;47.740;7.606;2023-12-20T04:32:34;6.70;99.90
7502;DHT22;3792;47.740;7.606;2023-12-20T04:35:01;6.70;99.90
7502;DHT22;3792;47.740;7.606;2023-12-20T04:37:28;6.70;99.90
7502;DHT22;3792;47.740;7.606;2023-12-20T04:39:57;6.70;99.90
7502;DHT22;3792;47.740;7.606;2023-12-20T04:42:24;6.70;99.90
7502;DHT22;3792;47.740;7.606;2023-12-20T04:44:51;6.70;99.90
7502;DHT22;3792;47.740;7.606;2023-12-20T04:47:18;6.70;99.90
7502;DHT22;3792;47.740;7.606;2023-12-20T04:49:45;6.70;99.90
7502;DHT22;3792;47.740;7.606;2023-12-20T04:52:12;6.70;99.90
7502;DHT22;3792;47.740;7.606;2023-12-20T04:54:40;6.70;99.90
7502;DHT22;3792;47.740;7.606;2023-12-20T04:57:08;6.80;99.90
7502;DHT22;3792;47.740;7.606;2023-12-20T04:59:35;6.80;99.90
7502;DHT22;3792;47.740;7.606;2023-12-20T05:02:02;6.80;99.90
7502;DHT22;3792;47.740;7.606;2023-12-20T05:04:29;6.80;99.90
7502;DHT22;3792;47.740;7.606;2023-12-20T05:06:56;6.80;99.90
7502;DHT22;3792;47.740;7.606;2023-12-20T05:09:23;6.80;99.90
7502;DHT22;3792;47.740;7.606;2023-12-20T05:11:50;6.80;99.90
7502;DHT22;3792;47.740;7.606;2023-12-20T05:14:19;6.80;99.90
7502;DHT22;3792;47.740;7.606;2023-12-20T05:16:46;6.80;99.90
7502;DHT22;3792;47.740;7.606;2023-12-20T05:19:13;6.80;99.90
7502;DHT22;3792;47.740;7.606;2023-12-20T05:21:50;6.80;99.90
7502;DHT22;3792;47.740;7.606;2023-12-20T05:24:28;6.80;99.90
7502;DHT22;3792;47.740;7.606;2023-12-20T05:27:06;6.80;99.90
7502;DHT22;3792;47.740;7.606;2023-12-20T05:29:45;6.80;99.90
7502;DHT22;3792;47.740;7.606;2023-12-20T05:32:16;6.70;99.90
7502;DHT22;3792;47.740;7.606;2023-12-20T05:34:43;6.70;99.90
7502;DHT22;3792;47.740;7.606;2023-12-20T05:37:10;6.80;99.90
7502;DHT22;3792;47.740;7.606;2023-12-20T05:39:37;6.80;99.90
7502;DHT22;3792;47.740;7.606;2023-12-20T05:42:05;6.80;99.90
7502;DHT22;3792;47.740;7.606;2023-12-20T05:44:32;6.80;99.90
7502;DHT22;3792;47.740;7.606;2023-12-20T05:47:00;6.80;99.90
7502;DHT22;3792;47.740;7.606;2023-12-20T05:49:27;6.80;99.90
7502;DHT22;3792;47.740;7.606;2023-12-20T05:51:54;6.80;99.90
7502;DHT22;3792;47.740;7.606;2023-12-20T05:54:21;6.80;99.90
7502;DHT22;3792;47.740;7.606;2023-12-20T05:56:48;6.90;99.90
7502;DHT22;3792;47.740;7.606;2023-12-20T05:59:16;6.80;99.90
7502;DHT22;3792;47.740;7.606;2023-12-20T06:01:43;6.80;99.90
7502;DHT22;3792;47.740;7.606;2023-12-20T06:04:11;6.80;99.90
7502;DHT22;3792;47.740;7.606;2023-12-20T06:06:41;6.80;99.90
7502;DHT22;3792;47.740;7.606;2023-12-20T06:09:08;6.80;99.90
7502;DHT22;3792;47.740;7.606;2023-12-20T06:11:35;6.80;99.90
7502;DHT22;3792;47.740;7.606;2023-12-20T06:14:03;6.80;99.90
7502;DHT22;3792;47.740;7.606;2023-12-20T06:16:30;6.80;99.90
7502;DHT22;3792;47.740;7.606;2023-12-20T06:18:57;6.80;99.90
7502;DHT22;3792;47.740;7.606;2023-12-20T06:21:26;6.80;99.90
7502;DHT22;3792;47.740;7.606;2023-12-20T06:23:53;6.70;99.90
7502;DHT22;3792;47.740;7.606;2023-12-20T06:26:20;6.70;99.90
7502;DHT22;3792;47.740;7.606;2023-12-20T06:28:47;6.70;99.90
7502;DHT22;3792;47.740;7.606;2023-12-20T06:31:14;6.70;99.90
7502;DHT22;3792;47.740;7.606;2023-12-20T06:33:42;6.70;99.90
7502;DHT22;3792;47.740;7.606;2023-12-20T06:36:11;7.10;99.90
7502;DHT22;3792;47.740;7.606;2023-12-20T06:38:40;7.40;99.90
7502;DHT22;3792;47.740;7.606;2023-12-20T06:41:08;7.30;99.90
7502;DHT22;3792;47.740;7.606;2023-12-20T06:43:35;7.10;99.90
7502;DHT22;3792;47.740;7.606;2023-12-20T06:46:02;7.10;99.90
7502;DHT22;3792;47.740;7.606;2023-12-20T06:48:29;7.00;99.90
7502;DHT22;3792;47.740;7.606;2023-12-20T06:50:56;6.90;99.90
7502;DHT22;3792;47.740;7.606;2023-12-20T06:53:23;6.90;99.90
7502;DHT22;3792;47.740;7.606;2023-12-20T06:55:51;6.90;99.90
7502;DHT22;3792;47.740;7.606;2023-12-20T06:58:18;6.80;99.90
7502;DHT22;3792;47.740;7.606;2023-12-20T07:00:45;6.80;99.90
7502;DHT22;3792;47.740;7.606;2023-12-20T07:03:12;6.80;99.90
7502;DHT22;3792;47.740;7.606;2023-12-20T07:05:39;6.80;99.90
7502;DHT22;3792;47.740;7.606;2023-12-20T07:08:07;6.80;99.90
7502;DHT22;3792;47.740;7.606;2023-12-20T07:10:34;6.80;99.90
7502;DHT22;3792;47.740;7.606;2023-12-20T07:13:02;6.80;99.90
7502;DHT22;3792;47.740;7.606;2023-12-20T07:15:30;6.80;99.90
7502;DHT22;3792;47.740;7.606;2023-12-20T07:17:57;6.80;99.90
7502;DHT22;3792;47.740;7.606;2023-12-20T07:20:26;6.80;99.90
7502;DHT22;3792;47.740;7.606;2023-12-20T07:22:53;6.80;99.90
7502;DHT22;3792;47.740;7.606;2023-12-20T07:25:20;6.80;99.90
7502;DHT22;3792;47.740;7.606;2023-12-20T07:27:47;6.70;99.90
7502;DHT22;3792;47.740;7.606;2023-12-20T07:30:16;6.70;99.90
7502;DHT22;3792;47.740;7.606;2023-12-20T07:32:43;6.70;99.90
7502;DHT22;3792;47.740;7.606;2023-12-20T07:35:10;6.70;99.90
7502;DHT22;3792;47.740;7.606;2023-12-20T07:37:37;6.70;99.90
7502;DHT22;3792;47.740;7.606;2023-12-20T07:40:05;6.70;99.90
7502;DHT22;3792;47.740;7.606;2023-12-20T07:42:32;6.70;99.90
7502;DHT22;3792;47.740;7.606;2023-12-20T07:44:59;6.70;99.90
7502;DHT22;3792;47.740;7.606;2023-12-20T07:47:28;6.70;99.90
7502;DHT22;3792;47.740;7.606;2023-12-20T07:49:56;6.70;99.90
7502;DHT22;3792;47.740;7.606;2023-12-20T07:52:23;6.80;99.90
7502;DHT22;3792;47.740;7.606;2023-12-20T07:54:51;6.70;99.90
7502;DHT22;3792;47.740;7.606;2023-12-20T07:57:18;6.70;99.90
7502;DHT22;3792;47.740;7.606;2023-12-20T07:59:45;6.80;99.90
7502;DHT22;3792;47.740;7.606;2023-12-20T08:02:12;6.80;99.90
7502;DHT22;3792;47.740;7.606;2023-12-20T08:04:41;6.80;99.90
7502;DHT22;3792;47.740;7.606;2023-12-20T08:07:08;6.80;99.90
7502;DHT22;3792;47.740;7.606;2023-12-20T08:09:35;6.80;99.90
7502;DHT22;3792;47.740;7.606;2023-12-20T08:12:02;6.80;99.90
7502;DHT22;3792;47.740;7.606;2023-12-20T08:14:29;6.90;99.90
7502;DHT22;3792;47.740;7.606;2023-12-20T08:16:57;6.90;99.90
7502;DHT22;3792;47.740;7.606;2023-12-20T08:19:24;6.90;99.90
7502;DHT22;3792;47.740;7.606;2023-12-20T08:21:52;6.90;99.90
7502;DHT22;3792;47.740;7.606;2023-12-20T08:24:19;6.90;99.90
7502;DHT22;3792;47.740;7.606;2023-12-20T08:26:46;6.90;99.90
7502;DHT22;3792;47.740;7.606;2023-12-20T08:29:13;6.90;99.90
7502;DHT22;3792;47.740;7.606;2023-12-20T08:31:40;6.90;99.90
7502;DHT22;3792;47.740;7.606;2023-12-20T08:34:07;6.90;99.90
7502;DHT22;3792;47.740;7.606;2023-12-20T08:36:34;6.90;99.90
7502;DHT22;3792;47.740;7.606;2023-12-20T08:39:03;6.90;99.90
7502;DHT22;3792;47.740;7.606;2023-12-20T08:41:33;6.90;99.90
7502;DHT22;3792;47.740;7.606;2023-12-20T08:44:00;6.90;99.90
7502;DHT22;3792;47.740;7.606;2023-12-20T08:46:27;6.90;99.90
7502;DHT22;3792;47.740;7.606;2023-12-20T08:48:54;6.90;99.90
7502;DHT22;3792;47.740;7.606;2023-12-20T08:51:21;6.90;99.90
7502;DHT22;3792;47.740;7.606;2023-12-20T08:53:49;6.90;99.90
7502;DHT22;3792;47.740;7.606;2023-12-20T08:56:17;6.90;99.90
7502;DHT22;3792;47.740;7.606;2023-12-20T08:58:45;6.90;99.90
7502;DHT22;3792;47.740;7.606;2023-12-20T09:01:12;6.90;99.90
7502;DHT22;3792;47.740;7.606;2023-12-20T09:03:39;6.90;99.90
7502;DHT22;3792;47.740;7.606;2023-12-20T09:06:06;6.90;99.90
7502;DHT22;3792;47.740;7.606;2023-12-20T09:08:33;7.00;99.90
7502;DHT22;3792;47.740;7.606;2023-12-20T09:11:00;7.00;99.90
7502;DHT22;3792;47.740;7.606;2023-12-20T09:13:29;7.00;99.90
7502;DHT22;3792;47.740;7.606;2023-12-20T09:15:57;7.00;99.90
7502;DHT22;3792;47.740;7.606;2023-12-20T09:18:24;7.10;99.90
7502;DHT22;3792;47.740;7.606;2023-12-20T09:20:51;7.20;99.90
7502;DHT22;3792;47.740;7.606;2023-12-20T09:23:18;7.20;99.90
7502;DHT22;3792;47.740;7.606;2023-12-20T09:25:45;7.20;99.90
7502;DHT22;3792;47.740;7.606;2023-12-20T09:28:12;7.20;99.90
7502;DHT22;3792;47.740;7.606;2023-12-20T09:30:41;7.20;99.90
7502;DHT22;3792;47.740;7.606;2023-12-20T09:33:10;7.30;99.90
7502;DHT22;3792;47.740;7.606;2023-12-20T09:35:37;7.30;99.90
7502;DHT22;3792;47.740;7.606;2023-12-20T09:38:04;7.30;99.90
7502;DHT22;3792;47.740;7.606;2023-12-20T09:40:32;7.30;99.90
7502;DHT22;3792;47.740;7.606;2023-12-20T09:43:04;7.30;99.90
7502;DHT22;3792;47.740;7.606;2023-12-20T09:45:31;7.30;99.90
7502;DHT22;3792;47.740;7.606;2023-12-20T09:48:01;7.40;99.90
7502;DHT22;3792;47.740;7.606;2023-12-20T09:50:30;7.40;99.90
7502;DHT22;3792;47.740;7.606;2023-12-20T09:52:58;7.40;99.90
7502;DHT22;3792;47.740;7.606;2023-12-20T09:55:28;7.40;99.90
7502;DHT22;3792;47.740;7.606;2023-12-20T09:57:55;7.40;99.90
7502;DHT22;3792;47.740;7.606;2023-12-20T10:00:22;7.40;99.90
7502;DHT22;3792;47.740;7.606;2023-12-20T10:02:51;7.40;99.90
7502;DHT22;3792;47.740;7.606;2023-12-20T10:05:26;7.40;99.90
7502;DHT22;3792;47.740;7.606;2023-12-20T10:07:54;7.60;99.90
7502;DHT22;3792;47.740;7.606;2023-12-20T10:10:21;7.70;99.90
7502;DHT22;3792;47.740;7.606;2023-12-20T10:13:01;8.00;99.90
7502;DHT22;3792;47.740;7.606;2023-12-20T10:15:30;8.50;99.90
7502;DHT22;3792;47.740;7.606;2023-12-20T10:17:57;9.00;99.90
7502;DHT22;3792;47.740;7.606;2023-12-20T10:20:26;9.10;99.90
7502;DHT22;3792;47.740;7.606;2023-12-20T10:22:54;9.10;99.90
7502;DHT22;3792;47.740;7.606;2023-12-20T10:25:22;8.90;99.90
7502;DHT22;3792;47.740;7.606;2023-12-20T10:27:50;8.70;99.90
7502;DHT22;3792;47.740;7.606;2023-12-20T10:30:17;8.50;99.90
7502;DHT22;3792;47.740;7.606;2023-12-20T10:32:44;8.30;99.90
7502;DHT22;3792;47.740;7.606;2023-12-20T10:35:11;8.20;99.90
7502;DHT22;3792;47.740;7.606;2023-12-20T10:37:39;8.10;99.90
7502;DHT22;3792;47.740;7.606;2023-12-20T10:40:08;8.10;99.90
7502;DHT22;3792;47.740;7.606;2023-12-20T10:42:36;8.10;99.90
7502;DHT22;3792;47.740;7.606;2023-12-20T10:45:04;8.10;99.90
7502;DHT22;3792;47.740;7.606;2023-12-20T10:47:32;8.20;99.90
7502;DHT22;3792;47.740;7.606;2023-12-20T10:50:00;8.20;99.90
7502;DHT22;3792;47.740;7.606;2023-12-20T10:52:28;8.30;99.90
7502;DHT22;3792;47.740;7.606;2023-12-20T10:54:57;8.50;99.90
7502;DHT22;3792;47.740;7.606;2023-12-20T10:57:27;8.60;99.90
7502;DHT22;3792;47.740;7.606;2023-12-20T10:59:56;8.70;99.90
7502;DHT22;3792;47.740;7.606;2023-12-20T11:02:28;8.70;99.90
7502;DHT22;3792;47.740;7.606;2023-12-20T11:05:01;8.90;99.90
7502;DHT22;3792;47.740;7.606;2023-12-20T11:07:36;9.30;99.90
7502;DHT22;3792;47.740;7.606;2023-12-20T11:10:13;9.80;99.90
7502;DHT22;3792;47.740;7.606;2023-12-20T11:12:47;10.40;99.90
7502;DHT22;3792;47.740;7.606;2023-12-20T11:15:16;10.90;99.90
7502;DHT22;3792;47.740;7.606;2023-12-20T11:17:45;11.40;99.90
7502;DHT22;3792;47.740;7.606;2023-12-20T11:20:12;11.90;99.90
7502;DHT22;3792;47.740;7.606;2023-12-20T11:22:52;12.40;99.90
7502;DHT22;3792;47.740;7.606;2023-12-20T11:25:21;12.80;99.90
7502;DHT22;3792;47.740;7.606;2023-12-20T11:28:07;12.80;99.90
7502;DHT22;3792;47.740;7.606;2023-12-20T11:30:41;12.40;99.90
7502;DHT22;3792;47.740;7.606;2023-12-20T11:33:08;12.10;99.90
7502;DHT22;3792;47.740;7.606;2023-12-20T11:35:36;11.40;99.90
7502;DHT22;3792;47.740;7.606;2023-12-20T11:38:07;11.80;99.90
7502;DHT22;3792;47.740;7.606;2023-12-20T11:40:36;12.30;99.90
7502;DHT22;3792;47.740;7.606;2023-12-20T11:43:04;12.90;99.90
7502;DHT22;3792;47.740;7.606;2023-12-20T11:45:32;13.70;99.90
7502;DHT22;3792;47.740;7.606;2023-12-20T11:48:01;14.00;99.90
7502;DHT22;3792;47.740;7.606;2023-12-20T11:50:29;14.20;99.90
7502;DHT22;3792;47.740;7.606;2023-12-20T11:52:56;14.30;99.90
7502;DHT22;3792;47.740;7.606;2023-12-20T11:55:24;14.20;99.90
7502;DHT22;3792;47.740;7.606;2023-12-20T11:57:52;13.60;99.90
7502;DHT22;3792;47.740;7.606;2023-12-20T12:00:19;13.80;99.90
7502;DHT22;3792;47.740;7.606;2023-12-20T12:02:57;14.10;99.90
7502;DHT22;3792;47.740;7.606;2023-12-20T12:05:24;14.40;99.90
7502;DHT22;3792;47.740;7.606;2023-12-20T12:07:51;14.10;99.90
7502;DHT22;3792;47.740;7.606;2023-12-20T12:10:19;14.10;99.10
7502;DHT22;3792;47.740;7.606;2023-12-20T12:12:46;13.40;99.70
7502;DHT22;3792;47.740;7.606;2023-12-20T12:15:15;12.70;99.90
7502;DHT22;3792;47.740;7.606;2023-12-20T12:17:42;12.20;99.90
7502;DHT22;3792;47.740;7.606;2023-12-20T12:20:09;11.60;99.90
7502;DHT22;3792;47.740;7.606;2023-12-20T12:22:37;11.70;99.80
7502;DHT22;3792;47.740;7.606;2023-12-20T12:25:13;12.00;99.40
7502;DHT22;3792;47.740;7.606;2023-12-20T12:27:41;11.30;98.90
7502;DHT22;3792;47.740;7.606;2023-12-20T12:30:09;10.80;99.90
7502;DHT22;3792;47.740;7.606;2023-12-20T12:32:40;10.20;99.90
7502;DHT22;3792;47.740;7.606;2023-12-20T12:35:08;9.80;99.90
7502;DHT22;3792;47.740;7.606;2023-12-20T12:37:38;9.40;99.90
7502;DHT22;3792;47.740;7.606;2023-12-20T12:40:07;9.10;99.90
7502;DHT22;3792;47.740;7.606;2023-12-20T12:42:36;9.00;99.90
7502;DHT22;3792;47.740;7.606;2023-12-20T12:45:04;8.90;99.90
7502;DHT22;3792;47.740;7.606;2023-12-20T12:47:31;8.70;99.90
7502;DHT22;3792;47.740;7.606;2023-12-20T12:50:00;8.60;99.90
7502;DHT22;3792;47.740;7.606;2023-12-20T12:52:27;8.50;99.90
7502;DHT22;3792;47.740;7.606;2023-12-20T12:54:54;8.50;99.90
7502;DHT22;3792;47.740;7.606;2023-12-20T12:57:21;8.40;99.90
7502;DHT22;3792;47.740;7.606;2023-12-20T12:59:50;8.40;99.90
7502;DHT22;3792;47.740;7.606;2023-12-20T13:02:17;8.40;99.90
7502;DHT22;3792;47.740;7.606;2023-12-20T13:04:44;8.30;99.90
7502;DHT22;3792;47.740;7.606;2023-12-20T13:07:13;8.20;99.90
7502;DHT22;3792;47.740;7.606;2023-12-20T13:09:40;8.30;99.90
7502;DHT22;3792;47.740;7.606;2023-12-20T13:12:08;8.40;99.90
7502;DHT22;3792;47.740;7.606;2023-12-20T13:14:35;8.40;99.90
7502;DHT22;3792;47.740;7.606;2023-12-20T13:17:04;8.30;99.90
7502;DHT22;3792;47.740;7.606;2023-12-20T13:19:31;8.30;99.90
7502;DHT22;3792;47.740;7.606;2023-12-20T13:21:58;8.10;99.90
7502;DHT22;3792;47.740;7.606;2023-12-20T13:24:27;8.00;99.90
7502;DHT22;3792;47.740;7.606;2023-12-20T13:26:54;7.90;99.90
7502;DHT22;3792;47.740;7.606;2023-12-20T13:29:22;7.70;99.90
7502;DHT22;3792;47.740;7.606;2023-12-20T13:31:49;7.70;99.90
7502;DHT22;3792;47.740;7.606;2023-12-20T13:34:16;8.00;99.90
7502;DHT22;3792;47.740;7.606;2023-12-20T13:36:43;8.20;99.90
7502;DHT22;3792;47.740;7.606;2023-12-20T13:39:13;8.60;99.90
7502;DHT22;3792;47.740;7.606;2023-12-20T13:41:41;8.50;99.90
7502;DHT22;3792;47.740;7.606;2023-12-20T13:44:08;8.40;99.90
7502;DHT22;3792;47.740;7.606;2023-12-20T13:46:36;8.30;99.90
7502;DHT22;3792;47.740;7.606;2023-12-20T13:49:03;8.20;99.90
7502;DHT22;3792;47.740;7.606;2023-12-20T13:51:30;8.00;99.90
7502;DHT22;3792;47.740;7.606;2023-12-20T13:53:57;8.00;99.90
7502;DHT22;3792;47.740;7.606;2023-12-20T13:56:25;8.40;99.90
7502;DHT22;3792;47.740;7.606;2023-12-20T13:58:54;8.90;99.90
7502;DHT22;3792;47.740;7.606;2023-12-20T14:01:21;9.40;99.90
7502;DHT22;3792;47.740;7.606;2023-12-20T14:03:48;9.80;99.90
7502;DHT22;3792;47.740;7.606;2023-12-20T14:06:15;10.00;99.90
7502;DHT22;3792;47.740;7.606;2023-12-20T14:08:45;10.40;99.90
7502;DHT22;3792;47.740;7.606;2023-12-20T14:11:12;10.80;99.90
7502;DHT22;3792;47.740;7.606;2023-12-20T14:13:41;10.80;99.90
7502;DHT22;3792;47.740;7.606;2023-12-20T14:16:10;10.50;99.90
7502;DHT22;3792;47.740;7.606;2023-12-20T14:18:38;10.30;99.90
7502;DHT22;3792;47.740;7.606;2023-12-20T14:21:05;10.00;99.90
7502;DHT22;3792;47.740;7.606;2023-12-20T14:23:33;9.90;99.90
7502;DHT22;3792;47.740;7.606;2023-12-20T14:26:00;9.50;99.90
7502;DHT22;3792;47.740;7.606;2023-12-20T14:28:27;9.40;99.90
7502;DHT22;3792;47.740;7.606;2023-12-20T14:30:54;9.20;99.90
7502;DHT22;3792;47.740;7.606;2023-12-20T14:33:23;9.00;99.90
7502;DHT22;3792;47.740;7.606;2023-12-20T14:35:50;9.10;99.90
7502;DHT22;3792;47.740;7.606;2023-12-20T14:38:18;9.10;99.90
7502;DHT22;3792;47.740;7.606;2023-12-20T14:40:45;8.80;99.90
7502;DHT22;3792;47.740;7.606;2023-12-20T14:43:12;8.60;99.90
7502;DHT22;3792;47.740;7.606;2023-12-20T14:45:39;8.30;99.90
7502;DHT22;3792;47.740;7.606;2023-12-20T14:48:06;8.10;99.90
7502;DHT22;3792;47.740;7.606;2023-12-20T14:50:35;7.80;99.90
7502;DHT22;3792;47.740;7.606;2023-12-20T14:53:02;7.60;99.90
7502;DHT22;3792;47.740;7.606;2023-12-20T14:55:29;7.50;99.90
7502;DHT22;3792;47.740;7.606;2023-12-20T14:57:56;7.40;99.90
7502;DHT22;3792;47.740;7.606;2023-12-20T15:00:23;7.40;99.90
7502;DHT22;3792;47.740;7.606;2023-12-20T15:02:50;7.30;99.90
7502;DHT22;3792;47.740;7.606;2023-12-20T15:05:19;7.30;99.90
7502;DHT22;3792;47.740;7.606;2023-12-20T15:07:48;7.30;99.90
7502;DHT22;3792;47.740;7.606;2023-12-20T15:10:15;7.30;99.90
7502;DHT22;3792;47.740;7.606;2023-12-20T15:12:43;7.30;99.90
7502;DHT22;3792;47.740;7.606;2023-12-20T15:15:11;7.20;99.90
7502;DHT22;3792;47.740;7.606;2023-12-20T15:17:38;7.30;99.90
7502;DHT22;3792;47.740;7.606;2023-12-20T15:20:06;7.30;99.90
7502;DHT22;3792;47.740;7.606;2023-12-20T15:22:35;7.30;99.90
7502;DHT22;3792;47.740;7.606;2023-12-20T15:25:05;7.20;99.90
7502;DHT22;3792;47.740;7.606;2023-12-20T15:27:34;7.20;99.90
7502;DHT22;3792;47.740;7.606;2023-12-20T15:30:04;7.10;99.90
7502;DHT22;3792;47.740;7.606;2023-12-20T15:32:32;7.10;99.90
7502;DHT22;3792;47.740;7.606;2023-12-20T15:35:02;7.10;99.90
7502;DHT22;3792;47.740;7.606;2023-12-20T15:37:29;7.00;99.90
7502;DHT22;3792;47.740;7.606;2023-12-20T15:39:56;7.00;99.90
7502;DHT22;3792;47.740;7.606;2023-12-20T15:42:25;6.90;99.90
7502;DHT22;3792;47.740;7.606;2023-12-20T15:44:52;6.90;99.90
7502;DHT22;3792;47.740;7.606;2023-12-20T15:47:19;6.90;99.90
7502;DHT22;3792;47.740;7.606;2023-12-20T15:49:46;6.90;99.90
7502;DHT22;3792;47.740;7.606;2023-12-20T15:52:15;6.80;99.90
7502;DHT22;3792;47.740;7.606;2023-12-20T15:54:42;6.80;99.90
7502;DHT22;3792;47.740;7.606;2023-12-20T15:57:09;6.80;99.90
7502;DHT22;3792;47.740;7.606;2023-12-20T15:59:37;6.80;99.90
7502;DHT22;3792;47.740;7.606;2023-12-20T16:02:04;6.70;99.90
7502;DHT22;3792;47.740;7.606;2023-12-20T16:04:31;6.70;99.90
7502;DHT22;3792;47.740;7.606;2023-12-20T16:06:58;6.70;99.90
7502;DHT22;3792;47.740;7.606;2023-12-20T16:09:25;6.70;99.90
7502;DHT22;3792;47.740;7.606;2023-12-20T16:11:52;6.60;99.90
7502;DHT22;3792;47.740;7.606;2023-12-20T16:14:19;6.50;99.90
7502;DHT22;3792;47.740;7.606;2023-12-20T16:16:48;6.40;99.90
7502;DHT22;3792;47.740;7.606;2023-12-20T16:19:15;6.30;99.90
7502;DHT22;3792;47.740;7.606;2023-12-20T16:21:42;6.30;99.90